createdAt,value
2023-02-14T00:00:03.722Z,59.22
2023-02-14T00:02:31.656Z,59.26
2023-02-14T00:04:59.639Z,59.15
2023-02-14T00:07:28.974Z,59.30
2023-02-14T00:09:56.873Z,59.48
2023-02-14T00:12:24.759Z,59.47
2023-02-14T00:15:10.337Z,59.35
2023-02-14T00:17:38.196Z,59.52
2023-02-14T00:20:07.432Z,59.60
2023-02-14T00:22:36.759Z,59.62
2023-02-14T00:25:04.692Z,59.61
2023-02-14T00:27:32.596Z,59.56
2023-02-14T00:30:02.680Z,59.80
2023-02-14T00:32:30.621Z,59.88
2023-02-14T00:34:58.467Z,59.87
2023-02-14T00:37:26.446Z,59.95
2023-02-14T00:39:55.706Z,59.94
2023-02-14T00:42:23.579Z,59.99
2023-02-14T00:44:51.471Z,59.99
2023-02-14T00:47:19.337Z,60.00
2023-02-14T00:49:47.205Z,60.14
2023-02-14T00:52:15.092Z,60.01
2023-02-14T00:54:43.051Z,59.98
2023-02-14T00:57:12.282Z,60.04
2023-02-14T00:59:40.173Z,60.06
2023-02-14T01:02:08.090Z,60.36
2023-02-14T01:04:36.055Z,60.38
2023-02-14T01:07:03.948Z,60.29
2023-02-14T01:09:31.852Z,60.49
2023-02-14T01:11:59.765Z,60.42
2023-02-14T01:14:29.086Z,60.30
2023-02-14T01:16:56.966Z,60.53
2023-02-14T01:19:24.838Z,60.49
2023-02-14T01:21:52.776Z,60.52
2023-02-14T01:24:20.672Z,60.71
2023-02-14T01:26:48.551Z,60.74
2023-02-14T01:29:16.449Z,60.70
2023-02-14T01:31:48.362Z,60.81
2023-02-14T01:34:16.360Z,60.94
2023-02-14T01:36:44.209Z,60.94
2023-02-14T01:39:13.707Z,60.92
2023-02-14T01:41:42.506Z,60.99
2023-02-14T01:44:43.575Z,60.93
2023-02-14T01:47:12.852Z,60.83
2023-02-14T01:49:42.570Z,60.83
2023-02-14T01:52:12.539Z,60.76
2023-02-14T01:54:42.299Z,61.03
2023-02-14T01:57:11.122Z,60.98
2023-02-14T01:59:42.077Z,61.06
2023-02-14T02:02:09.965Z,60.92
2023-02-14T02:04:40.553Z,60.87
2023-02-14T02:07:10.554Z,60.90
2023-02-14T02:09:41.895Z,60.94
2023-02-14T02:12:09.925Z,60.90
2023-02-14T02:14:37.803Z,60.80
2023-02-14T02:17:13.503Z,60.70
2023-02-14T02:20:20.121Z,60.74
2023-02-14T02:23:17.643Z,60.96
2023-02-14T02:26:04.718Z,61.06
2023-02-14T02:28:54.618Z,61.17
2023-02-14T02:31:32.533Z,60.93
2023-02-14T02:34:21.279Z,61.01
2023-02-14T02:37:03.747Z,61.30
2023-02-14T02:39:40.395Z,61.44
2023-02-14T02:42:12.029Z,61.45
2023-02-14T02:44:44.331Z,61.44
2023-02-14T02:47:17.705Z,61.65
2023-02-14T02:50:05.013Z,61.56
2023-02-14T02:52:56.216Z,61.51
2023-02-14T02:55:27.147Z,61.44
2023-02-14T02:57:54.024Z,61.36
2023-02-14T03:00:22.630Z,61.21
2023-02-14T03:03:08.735Z,61.21
2023-02-14T03:05:36.746Z,61.35
2023-02-14T03:08:06.198Z,61.40
2023-02-14T03:10:35.921Z,61.30
2023-02-14T03:13:35.739Z,61.42
2023-02-14T03:16:34.053Z,61.53
2023-02-14T03:19:23.328Z,61.47
2023-02-14T03:21:54.668Z,61.25
2023-02-14T03:24:26.935Z,61.24
2023-02-14T03:26:58.828Z,61.19
2023-02-14T03:29:27.943Z,61.13
2023-02-14T03:31:59.332Z,60.92
2023-02-14T03:34:30.841Z,60.92
2023-02-14T03:37:00.311Z,60.94
2023-02-14T03:39:30.879Z,60.93
2023-02-14T03:42:06.067Z,61.00
2023-02-14T03:44:34.591Z,60.93
2023-02-14T03:47:03.772Z,61.03
2023-02-14T03:49:32.893Z,61.02
2023-02-14T03:52:00.898Z,60.99
2023-02-14T03:54:30.280Z,61.00
2023-02-14T03:57:00.521Z,61.05
2023-02-14T03:59:28.523Z,60.99
2023-02-14T04:01:57.602Z,60.93
2023-02-14T04:04:26.378Z,61.02
2023-02-14T04:06:54.300Z,60.94
2023-02-14T04:09:22.201Z,60.95
2023-02-14T04:11:52.490Z,60.95
2023-02-14T04:14:20.368Z,60.96
2023-02-14T04:17:05.690Z,60.92
2023-02-14T04:19:33.563Z,60.93
2023-02-14T04:22:01.480Z,60.99
2023-02-14T04:24:29.390Z,60.88
2023-02-14T04:27:11.128Z,60.82
2023-02-14T04:29:39.797Z,60.99
2023-02-14T04:32:08.492Z,60.85
2023-02-14T04:34:36.416Z,60.74
2023-02-14T04:37:04.743Z,60.82
2023-02-14T04:39:32.607Z,60.66
2023-02-14T04:42:01.909Z,60.77
2023-02-14T04:44:29.777Z,60.74
2023-02-14T04:46:57.666Z,60.65
2023-02-14T04:49:25.576Z,60.64
2023-02-14T04:51:53.419Z,60.52
2023-02-14T04:54:21.430Z,60.81
2023-02-14T04:56:49.360Z,60.53
2023-02-14T04:59:18.691Z,60.43
2023-02-14T05:01:46.617Z,60.53
2023-02-14T05:04:14.526Z,60.53
2023-02-14T05:06:42.481Z,60.45
2023-02-14T05:09:10.352Z,60.58
2023-02-14T05:11:38.289Z,60.33
2023-02-14T05:14:06.162Z,60.42
2023-02-14T05:16:35.499Z,60.26
2023-02-14T05:19:03.395Z,60.42
2023-02-14T05:21:33.167Z,60.62
2023-02-14T05:24:01.065Z,60.46
2023-02-14T05:26:29.254Z,60.54
2023-02-14T05:28:57.222Z,60.50
2023-02-14T05:31:25.216Z,60.42
2023-02-14T05:33:54.507Z,60.47
2023-02-14T05:36:22.374Z,60.70
2023-02-14T05:38:50.291Z,60.34
2023-02-14T05:41:18.161Z,60.46
2023-02-14T05:43:46.028Z,60.46
2023-02-14T05:46:13.932Z,60.50
2023-02-14T05:48:41.917Z,60.41
2023-02-14T05:51:11.339Z,60.46
2023-02-14T05:53:39.328Z,60.37
2023-02-14T05:56:07.616Z,60.50
2023-02-14T05:58:35.501Z,60.48
2023-02-14T06:01:03.378Z,60.49
2023-02-14T06:03:31.266Z,60.61
2023-02-14T06:05:59.219Z,60.67
2023-02-14T06:08:28.469Z,60.71
2023-02-14T06:10:56.359Z,60.65
2023-02-14T06:13:24.920Z,60.52
2023-02-14T06:15:52.828Z,60.78
2023-02-14T06:18:20.714Z,60.77
2023-02-14T06:20:48.610Z,60.77
2023-02-14T06:23:16.523Z,61.03
2023-02-14T06:25:45.776Z,60.93
2023-02-14T06:28:13.637Z,60.68
2023-02-14T06:30:41.752Z,60.86
2023-02-14T06:33:09.859Z,60.79
2023-02-14T06:35:37.728Z,60.88
2023-02-14T06:38:05.658Z,60.74
2023-02-14T06:40:33.538Z,60.60
2023-02-14T06:43:02.757Z,60.81
2023-02-14T06:45:30.667Z,60.63
2023-02-14T06:48:00.016Z,60.89
2023-02-14T06:50:27.933Z,60.74
2023-02-14T06:52:55.995Z,60.69
2023-02-14T06:55:23.992Z,60.70
2023-02-14T06:57:51.856Z,60.70
2023-02-14T07:00:22.426Z,60.63
2023-02-14T07:02:50.332Z,60.65
2023-02-14T07:05:19.066Z,60.61
2023-02-14T07:07:47.125Z,60.62
2023-02-14T07:10:15.080Z,60.42
2023-02-14T07:12:42.989Z,60.28
2023-02-14T07:15:11.666Z,60.28
2023-02-14T07:17:41.012Z,60.27
2023-02-14T07:20:09.550Z,60.24
2023-02-14T07:22:37.830Z,60.24
2023-02-14T07:25:06.261Z,60.28
2023-02-14T07:27:34.207Z,60.24
2023-02-14T07:30:02.201Z,60.07
2023-02-14T07:32:30.143Z,60.33
2023-02-14T07:34:59.504Z,60.16
2023-02-14T07:37:27.359Z,60.06
2023-02-14T07:39:55.487Z,60.26
2023-02-14T07:42:23.384Z,60.25
2023-02-14T07:44:51.294Z,60.32
2023-02-14T07:47:19.181Z,60.11
2023-02-14T07:49:47.040Z,60.15
2023-02-14T07:52:16.440Z,60.18
2023-02-14T07:54:44.317Z,60.18
2023-02-14T07:57:12.195Z,60.43
2023-02-14T07:59:40.125Z,60.13
2023-02-14T08:02:07.992Z,60.22
2023-02-14T08:04:35.886Z,60.17
2023-02-14T08:07:03.782Z,60.04
2023-02-14T08:09:33.172Z,60.02
2023-02-14T08:12:18.358Z,60.16
2023-02-14T08:14:46.253Z,60.23
2023-02-14T08:17:14.482Z,60.20
2023-02-14T08:19:42.395Z,60.28
2023-02-14T08:22:10.265Z,60.14
2023-02-14T08:24:39.512Z,60.33
2023-02-14T08:27:07.437Z,60.35
2023-02-14T08:29:35.344Z,60.37
2023-02-14T08:32:03.370Z,60.39
2023-02-14T08:34:31.382Z,60.16
2023-02-14T08:36:59.254Z,60.37
2023-02-14T08:39:27.153Z,60.10
2023-02-14T08:41:56.501Z,60.10
2023-02-14T08:44:24.611Z,60.22
2023-02-14T08:46:52.601Z,60.12
2023-02-14T08:49:20.552Z,60.10
2023-02-14T08:51:48.487Z,59.92
2023-02-14T08:54:16.546Z,60.13
2023-02-14T08:56:44.495Z,59.75
2023-02-14T08:59:14.190Z,59.70
2023-02-14T09:01:42.064Z,59.70
2023-02-14T09:04:10.076Z,59.74
2023-02-14T09:06:38.664Z,59.46
2023-02-14T09:09:06.588Z,59.59
2023-02-14T09:11:34.833Z,59.32
2023-02-14T09:14:02.781Z,59.21
2023-02-14T09:16:32.212Z,59.37
2023-02-14T09:19:00.298Z,59.25
2023-02-14T09:21:28.623Z,59.13
2023-02-14T09:23:56.552Z,59.12
2023-02-14T09:26:24.440Z,59.09
2023-02-14T09:28:52.399Z,59.08
2023-02-14T09:31:20.978Z,59.12
2023-02-14T09:34:08.052Z,59.11
2023-02-14T09:36:35.930Z,58.95
2023-02-14T09:39:03.837Z,58.96
2023-02-14T09:41:53.081Z,59.03
2023-02-14T09:44:25.482Z,58.88
2023-02-14T09:46:54.699Z,58.70
2023-02-14T09:49:29.626Z,58.83
2023-02-14T09:51:57.875Z,58.80
2023-02-14T09:54:27.508Z,58.49
2023-02-14T09:56:57.363Z,58.57
2023-02-14T09:59:27.458Z,58.61
2023-02-14T10:01:59.116Z,58.64
2023-02-14T10:04:30.931Z,58.60
2023-02-14T10:07:01.759Z,58.42
2023-02-14T10:09:38.012Z,58.47
2023-02-14T10:12:06.206Z,58.31
2023-02-14T10:14:40.350Z,58.15
2023-02-14T10:17:09.892Z,58.20
2023-02-14T10:19:40.530Z,58.06
2023-02-14T10:22:10.555Z,57.86
2023-02-14T10:24:39.667Z,57.49
2023-02-14T10:27:12.742Z,57.93
2023-02-14T10:29:40.654Z,57.67
2023-02-14T10:32:13.156Z,57.60
2023-02-14T10:34:43.391Z,57.06
2023-02-14T10:37:20.985Z,57.04
2023-02-14T10:39:57.328Z,56.62
2023-02-14T10:42:27.523Z,56.85
2023-02-14T10:44:57.738Z,56.28
2023-02-14T10:47:32.480Z,56.03
2023-02-14T10:50:06.620Z,55.53
2023-02-14T10:52:38.270Z,55.39
2023-02-14T10:55:13.903Z,55.42
2023-02-14T10:57:44.717Z,54.94
2023-02-14T11:00:18.921Z,54.96
2023-02-14T11:02:47.620Z,54.80
2023-02-14T11:05:24.979Z,55.27
2023-02-14T11:07:53.033Z,56.78
2023-02-14T11:10:21.679Z,57.46
2023-02-14T11:12:49.615Z,57.78
2023-02-14T11:15:22.933Z,56.31
2023-02-14T11:17:50.859Z,55.78
2023-02-14T11:20:25.684Z,54.36
2023-02-14T11:22:53.670Z,54.02
2023-02-14T11:25:23.290Z,53.35
2023-02-14T11:27:52.453Z,53.09
2023-02-14T11:30:22.557Z,52.50
2023-02-14T11:32:55.141Z,51.91
2023-02-14T11:35:27.105Z,51.02
2023-02-14T11:37:55.695Z,49.22
2023-02-14T11:40:34.296Z,48.94
2023-02-14T11:43:19.821Z,48.87
2023-02-14T11:45:48.483Z,48.75
2023-02-14T11:48:24.824Z,48.35
2023-02-14T11:51:03.116Z,48.21
2023-02-14T11:53:35.028Z,48.06
2023-02-14T11:56:02.914Z,47.45
2023-02-14T11:58:35.355Z,45.91
2023-02-14T12:01:03.281Z,45.14
2023-02-14T12:03:33.940Z,45.75
2023-02-14T12:06:03.321Z,46.89
2023-02-14T12:08:46.904Z,47.00
2023-02-14T12:11:24.431Z,46.28
2023-02-14T12:13:55.792Z,45.85
2023-02-14T12:16:28.041Z,45.48
2023-02-14T12:18:57.480Z,45.64
2023-02-14T12:21:41.041Z,44.79
2023-02-14T12:24:17.506Z,44.31
2023-02-14T12:26:47.904Z,44.00
2023-02-14T12:29:19.398Z,43.03
2023-02-14T12:31:47.971Z,43.07
2023-02-14T12:34:16.765Z,42.88
2023-02-14T12:37:10.105Z,42.41
2023-02-14T12:39:47.870Z,41.60
2023-02-14T12:42:24.047Z,41.13
2023-02-14T12:44:55.671Z,41.07
2023-02-14T12:47:26.196Z,41.12
2023-02-14T12:50:18.592Z,40.35
2023-02-14T12:53:06.273Z,39.34
2023-02-14T12:55:50.719Z,39.93
2023-02-14T12:58:32.448Z,39.21
2023-02-14T13:01:06.898Z,39.25
2023-02-14T13:03:59.131Z,38.58
2023-02-14T13:06:30.317Z,37.92
2023-02-14T13:09:18.403Z,38.15
2023-02-14T13:11:55.548Z,38.00
2023-02-14T13:14:35.677Z,38.15
2023-02-14T13:17:06.406Z,37.68
2023-02-14T13:19:36.563Z,36.94
2023-02-14T13:22:05.158Z,37.27
2023-02-14T13:24:35.758Z,37.16
2023-02-14T13:27:05.841Z,37.15
2023-02-14T13:29:35.649Z,37.22
2023-02-14T13:34:32.759Z,36.83
2023-02-14T13:37:00.958Z,37.05
2023-02-14T13:39:32.901Z,36.29
2023-02-14T13:42:05.546Z,35.55
2023-02-14T13:44:47.108Z,35.06
2023-02-14T13:47:19.399Z,34.95
2023-02-14T13:49:48.846Z,35.34
2023-02-14T13:52:16.958Z,35.02
2023-02-14T13:54:45.978Z,33.99
2023-02-14T13:57:34.049Z,34.67
2023-02-14T14:00:38.538Z,33.98
2023-02-14T14:03:06.672Z,33.98
2023-02-14T14:06:06.025Z,33.91
2023-02-14T14:08:56.708Z,33.41
2023-02-14T14:11:59.641Z,33.61
2023-02-14T14:14:39.831Z,33.19
2023-02-14T14:17:21.926Z,33.34
2023-02-14T14:19:52.411Z,33.71
2023-02-14T14:22:20.914Z,33.44
2023-02-14T14:24:59.801Z,33.04
2023-02-14T14:27:30.767Z,33.43
2023-02-14T14:30:01.113Z,33.59
2023-02-14T14:32:30.687Z,33.35
2023-02-14T14:34:59.392Z,32.38
2023-02-14T14:37:28.532Z,32.59
2023-02-14T14:39:57.387Z,32.23
2023-02-14T14:42:25.926Z,32.54
2023-02-14T14:44:55.364Z,31.49
2023-02-14T14:47:25.506Z,31.39
2023-02-14T14:49:54.032Z,31.34
2023-02-14T14:52:32.422Z,31.43
2023-02-14T14:55:00.310Z,30.94
2023-02-14T14:57:28.192Z,31.51
2023-02-14T15:00:09.371Z,31.31
2023-02-14T15:02:38.779Z,31.18
2023-02-14T15:05:17.703Z,31.17
2023-02-14T15:07:48.414Z,31.44
2023-02-14T15:10:24.391Z,31.35
2023-02-14T15:13:09.952Z,31.03
2023-02-14T15:15:38.202Z,30.40
2023-02-14T15:18:08.340Z,30.60
2023-02-14T15:20:36.939Z,31.08
2023-02-14T15:23:04.977Z,30.63
2023-02-14T15:25:33.711Z,30.62
2023-02-14T15:28:01.706Z,31.15
2023-02-14T15:30:34.223Z,31.88
2023-02-14T15:33:02.381Z,32.86
2023-02-14T15:35:32.603Z,33.44
2023-02-14T15:38:02.692Z,34.43
2023-02-14T15:40:32.325Z,35.10
2023-02-14T15:43:03.464Z,36.13
2023-02-14T15:45:31.871Z,36.72
2023-02-14T15:48:01.325Z,37.06
2023-02-14T15:50:31.894Z,37.71
2023-02-14T15:53:03.978Z,38.19
2023-02-14T15:55:32.131Z,38.57
2023-02-14T15:58:02.267Z,38.65
2023-02-14T16:00:31.720Z,38.95
2023-02-14T16:03:00.836Z,39.08
2023-02-14T16:05:28.868Z,39.65
2023-02-14T16:08:03.658Z,40.01
2023-02-14T16:10:33.172Z,40.25
2023-02-14T16:13:02.537Z,40.32
2023-02-14T16:15:31.882Z,41.06
2023-02-14T16:18:01.108Z,41.05
2023-02-14T16:20:31.969Z,41.39
2023-02-14T16:23:26.203Z,41.37
2023-02-14T16:25:54.374Z,42.17
2023-02-14T16:28:22.962Z,42.40
2023-02-14T16:30:55.281Z,42.50
2023-02-14T16:33:24.276Z,42.24
2023-02-14T16:35:52.400Z,42.58
2023-02-14T16:38:21.890Z,42.58
2023-02-14T16:40:50.677Z,42.89
2023-02-14T16:43:19.980Z,43.04
2023-02-14T16:45:48.135Z,42.73
2023-02-14T16:48:16.883Z,43.33
2023-02-14T16:50:45.067Z,43.06
2023-02-14T16:53:26.154Z,43.11
2023-02-14T16:55:55.092Z,43.10
2023-02-14T16:58:23.382Z,43.58
2023-02-14T17:00:51.248Z,43.55
2023-02-14T17:03:19.223Z,44.05
2023-02-14T17:05:47.586Z,44.21
2023-02-14T17:08:16.295Z,44.36
2023-02-14T17:10:46.033Z,44.50
2023-02-14T17:13:13.915Z,44.59
2023-02-14T17:15:41.895Z,44.66
2023-02-14T17:18:11.331Z,45.18
2023-02-14T17:20:39.212Z,45.28
2023-02-14T17:23:07.129Z,45.41
2023-02-14T17:25:35.363Z,45.34
2023-02-14T17:28:05.148Z,45.86
2023-02-14T17:30:33.052Z,45.70
2023-02-14T17:33:01.025Z,46.06
2023-02-14T17:35:28.990Z,45.96
2023-02-14T17:37:56.946Z,46.34
2023-02-14T17:40:25.334Z,46.34
2023-02-14T17:42:53.331Z,46.31
2023-02-14T17:45:22.615Z,46.33
2023-02-14T17:47:50.913Z,46.72
2023-02-14T17:50:19.001Z,46.93
2023-02-14T17:52:46.966Z,46.81
2023-02-14T17:55:15.823Z,46.47
2023-02-14T17:57:43.806Z,46.68
2023-02-14T18:00:14.153Z,46.77
2023-02-14T18:02:43.422Z,46.84
2023-02-14T18:05:12.317Z,47.13
2023-02-14T18:07:40.264Z,47.03
2023-02-14T18:10:08.837Z,47.08
2023-02-14T18:12:36.755Z,47.58
2023-02-14T18:15:05.612Z,47.49
2023-02-14T18:17:33.526Z,47.42
2023-02-14T18:20:03.369Z,47.51
2023-02-14T18:22:31.294Z,47.61
2023-02-14T18:24:59.176Z,47.67
2023-02-14T18:27:27.485Z,47.75
2023-02-14T18:29:55.463Z,47.79
2023-02-14T18:32:23.380Z,47.86
2023-02-14T18:34:52.440Z,48.08
2023-02-14T18:37:22.190Z,47.99
2023-02-14T18:39:50.057Z,48.03
2023-02-14T18:42:17.950Z,48.26
2023-02-14T18:44:45.883Z,48.26
2023-02-14T18:47:13.794Z,48.36
2023-02-14T18:49:41.710Z,48.40
2023-02-14T18:52:09.622Z,48.43
2023-02-14T18:54:39.660Z,48.47
2023-02-14T18:57:08.229Z,48.73
2023-02-14T18:59:36.111Z,48.85
2023-02-14T19:02:04.023Z,48.91
2023-02-14T19:04:32.230Z,48.93
2023-02-14T19:07:00.320Z,49.10
2023-02-14T19:09:29.500Z,49.03
2023-02-14T19:12:00.142Z,49.02
2023-02-14T19:14:28.212Z,49.18
2023-02-14T19:16:56.061Z,49.30
2023-02-14T19:19:24.093Z,49.46
2023-02-14T19:21:52.113Z,49.60
2023-02-14T19:24:21.158Z,49.56
2023-02-14T19:26:49.405Z,49.60
2023-02-14T19:29:20.170Z,49.70
2023-02-14T19:31:49.568Z,49.87
2023-02-14T19:34:18.166Z,50.01
2023-02-14T19:36:46.228Z,50.18
2023-02-14T19:39:14.149Z,50.18
2023-02-14T19:41:42.016Z,50.22
2023-02-14T19:44:10.445Z,50.33
2023-02-14T19:46:39.917Z,50.46
2023-02-14T19:49:07.859Z,50.54
2023-02-14T19:51:36.346Z,50.56
2023-02-14T19:54:07.134Z,50.56
2023-02-14T19:56:36.579Z,50.67
2023-02-14T19:59:07.830Z,50.61
2023-02-14T20:01:36.899Z,50.73
2023-02-14T20:04:07.464Z,50.99
2023-02-14T20:06:35.426Z,50.92
2023-02-14T20:09:03.685Z,50.97
2023-02-14T20:11:35.540Z,50.92
2023-02-14T20:14:03.725Z,51.04
2023-02-14T20:16:32.831Z,50.98
2023-02-14T20:19:02.438Z,51.04
2023-02-14T20:21:31.876Z,51.02
2023-02-14T20:24:00.811Z,50.95
2023-02-14T20:26:28.933Z,50.99
2023-02-14T20:28:56.957Z,51.04
2023-02-14T20:31:25.027Z,51.13
2023-02-14T20:33:53.029Z,50.93
2023-02-14T20:36:21.040Z,51.05
2023-02-14T20:38:54.524Z,50.97
2023-02-14T20:41:22.439Z,50.87
2023-02-14T20:43:50.339Z,50.81
2023-02-14T20:46:18.216Z,50.84
2023-02-14T20:48:46.470Z,50.82
2023-02-14T20:51:15.284Z,50.70
2023-02-14T20:53:43.230Z,50.55
2023-02-14T20:56:12.734Z,50.47
2023-02-14T20:58:40.872Z,50.43
2023-02-14T21:01:09.085Z,50.51
2023-02-14T21:03:37.402Z,50.40
2023-02-14T21:06:05.684Z,50.34
2023-02-14T21:08:33.616Z,50.33
2023-02-14T21:11:01.909Z,50.28
2023-02-14T21:13:31.446Z,50.31
2023-02-14T21:16:03.183Z,50.30
2023-02-14T21:18:31.191Z,50.17
2023-02-14T21:21:05.088Z,50.27
2023-02-14T21:23:33.003Z,50.25
2023-02-14T21:28:28.973Z,50.22
2023-02-14T21:31:05.166Z,50.19
2023-02-14T21:33:33.458Z,50.33
2023-02-14T21:36:07.032Z,50.28
2023-02-14T21:38:35.083Z,50.35
2023-02-14T21:41:04.855Z,50.37
2023-02-14T21:43:34.684Z,50.34
2023-02-14T21:46:05.503Z,50.58
2023-02-14T21:48:50.823Z,50.58
2023-02-14T21:51:18.945Z,50.44
2023-02-14T21:53:46.893Z,50.41
2023-02-14T21:56:18.074Z,50.35
2023-02-14T21:58:46.028Z,50.20
2023-02-14T22:01:17.514Z,50.16
2023-02-14T22:03:45.454Z,50.15
2023-02-14T22:06:14.181Z,50.09
2023-02-14T22:08:42.065Z,49.97
2023-02-14T22:11:10.849Z,49.90
2023-02-14T22:13:38.718Z,49.89
2023-02-14T22:16:07.820Z,49.87
2023-02-14T22:18:37.153Z,49.74
2023-02-14T22:21:06.004Z,49.77
2023-02-14T22:23:34.277Z,49.66
2023-02-14T22:26:10.210Z,49.64
2023-02-14T22:28:38.093Z,49.74
2023-02-14T22:31:06.080Z,49.60
2023-02-14T22:33:34.426Z,49.60
2023-02-14T22:36:05.120Z,49.75
2023-02-14T22:38:33.044Z,49.56
2023-02-14T22:41:05.918Z,49.76
2023-02-14T22:43:34.077Z,49.68
2023-02-14T22:46:04.102Z,49.76
2023-02-14T22:48:32.772Z,49.93
2023-02-14T22:51:09.729Z,49.96
2023-02-14T22:53:37.719Z,49.93
2023-02-14T22:56:12.945Z,49.90
2023-02-14T22:58:40.851Z,50.27
2023-02-14T23:01:13.128Z,50.10
2023-02-14T23:03:41.418Z,50.49
2023-02-14T23:06:10.658Z,50.58
2023-02-14T23:08:40.062Z,50.63
2023-02-14T23:11:09.406Z,50.76
2023-02-14T23:13:55.235Z,50.73
2023-02-14T23:16:37.066Z,50.95
2023-02-14T23:19:22.548Z,50.99
2023-02-14T23:21:57.709Z,51.08
2023-02-14T23:24:25.589Z,51.24
2023-02-14T23:26:55.178Z,51.55
2023-02-14T23:29:23.168Z,51.55
2023-02-14T23:31:51.261Z,51.65
2023-02-14T23:34:19.311Z,51.72
2023-02-14T23:36:47.176Z,51.73
2023-02-14T23:39:16.413Z,51.74
2023-02-14T23:41:50.255Z,51.88
2023-02-14T23:44:19.242Z,52.02
2023-02-14T23:46:47.432Z,52.16
2023-02-14T23:49:15.430Z,52.41
2023-02-14T23:51:43.273Z,52.53
2023-02-14T23:54:11.277Z,52.46
2023-02-14T23:56:40.726Z,52.70
2023-02-14T23:59:08.985Z,52.82
